Terminal Aerodrome Forecast
Issued by NWS Spokane, WA

Home | Current Version | Previous Version | Text Only | Print | Product List | Glossary On
Versions: 1 2 3 4 5 6 7 8 9 10 11 12 13 14 15 16 17 18 19 20 21 22 23 24 25 26 27 28 29 30 31 32 33 34 35 36 37 38 39 40 41 42 43 44 45 46 47 48 49 50
000
FTUS46 KOTX 211750 CCA
TAFEAT
TAF COR
KEAT 211750Z 2118/2218 00000KT P6SM SCT006
     FM211900 27008KT P6SM FEW025 SCT040
     FM220200 VRB03KT P6SM OVC200
     FM220500 07004KT P6SM SCT100 OVC150
     FM221300 08003KT P6SM -RA BKN050 OVC080
     FM221500 10003KT 6SM -RA BR BKN030 OVC050=

USA.gov is the U.S. government's official web portal to all federal, state and local government web resources and services.